Mc Cook Ben Nelson Regional Airport
KMCK : now visible

Airfield :











YOU CAN JOIN US ON...

 
LOGIN :

Register | Disclaimer

   EN    FR    IT 

 









Legend :    VFR   Marginal VFR   IFR   Intensive IFR   Very Intensive IFR
Visi :
Ceiling :
>= 8 km
>= 3000ft
5 to 8 km
1000 to 3000 ft
1500m to 5 km
500 to 1000 ft
800 to 1500m
200 to 500 ft
< 800m
< 200 ft
Symbols :   Thunderstorms  Fog  Heavy snow  Heavy precipitations  Wind > 20 kt






- Airport Elevation : 2583 ft


KMCK - Mc Cook Ben Nelson Regional

CURRENT METAR :
  • 212353Z AUTO 22011KT 10SM CLR 16/M01 A3015 RMK AO2 SLP218 T01611011 10172 20117 56028

EXPIRED METARs :
  • 212253Z AUTO 21007G18KT 10SM CLR 17/M01 A3018 RMK AO2 SLP228 T01671006
  • 212153Z AUTO 21009G15KT 10SM CLR 17/M02 A3020 RMK AO2 SLP234 T01671017
  • 212053Z AUTO 19008KT 10SM CLR 16/M02 A3024 RMK AO2 SLP247 T01561022 56037
  • 211953Z AUTO 20014G20KT 10SM CLR 15/M02 A3027 RMK AO2 SLP260 T01501017

TAF KMCK
Valid from the 22 at 00:00 until the 23 at 00:00 UTC


212320Z 2200/2224 20010KT P6SM SKC
FM221400 27015KT P6SM SCT220
FM221800 04012KT P6SM SCT220
FM222353 09008KT P6SM SCT120
KZDV FIR / North America



MET'MAP, your aeronautical weather chart ! - Copyright ORBIFLY December 2007 - Disclaimer

ORBIFLY MET'MAP TEAM :

Programming & Development : Alexandra Zaïnal
Original concept : Baudouin d'Aumeries
Technical & hardware support : Manuel Goepfert
Assistance : Marc-Olivier Méhu




SOURCES & CREDITS :

   NOAA       Earth
Advisory